Terminal Aerodrome Forecast
Issued by NWS

Home | Current Version | Previous Version | Graphics & Text | Print | Product List | Glossary On
Versions: 1 2 3 4 5 6 7 8 9 10 11 12 13
000
FTUS43 KBIS 310435 AAA
TAFDIK
TAF AMD
KDIK 310435Z 3105/3124 02007KT P6SM VCTS SCT080CB BKN150
      TEMPO 3105/3107 VRB20G30KT P6SM -TSRA SCT050 BKN080CB
     FM310900 27008KT P6SM VCTS SCT080CB BKN150
     FM311100 30013G20KT P6SM SCT250
     FM312100 27013G20KT P6SM SKC=

USA.gov is the U.S. government's official web portal to all federal, state and local government web resources and services.